Time;durP1;ratioP1;P1;durP2;ratioP2;P2;SDS_P1;SDS_P2;PMS_P1;PMS_P2;Temp;Humidity;BMP_temperature;BMP_pressure;BME280_temperature;BME280_humidity;BME280_pressure;Samples;Min_cycle;Max_cycle;Signal;HPM_P1;HPM_P2
2022/01/14 00:01:16;;;;;;;26.27;15.75;;;;;;;;;;5012021;28;20215;-77
2022/01/14 00:03:43;;;;;;;27.67;16.45;;;;;;;;;;5011460;28;20192;-77
2022/01/14 00:06:10;;;;;;;27.65;16.35;;;;;;;;;;5006003;28;20189;-77
2022/01/14 00:08:37;;;;;;;29.38;16.33;;;;;;;;;;5007165;28;20232;-77
2022/01/14 00:11:14;;;;;;;29.02;15.02;;;;;;;;;;5012331;28;20556;-77
2022/01/14 00:13:51;;;;;;;29.02;15.90;;;;;;;;;;5013877;28;20246;-77
2022/01/14 00:16:19;;;;;;;23.40;15.23;;;;;;;;;;5012509;28;20203;-77
2022/01/14 00:18:47;;;;;;;23.85;14.50;;;;;;;;;;5009946;28;20610;-77
2022/01/14 00:21:14;;;;;;;26.38;15.93;;;;;;;;;;5009297;28;20192;-77
2022/01/14 00:23:42;;;;;;;20.50;14.52;;;;;;;;;;5008942;28;20196;-77
2022/01/14 00:31:46;;;;;;;24.98;14.70;;;;;;;;;;5012505;28;20207;-77
2022/01/14 00:34:14;;;;;;;24.63;14.88;;;;;;;;;;5010635;28;20192;-77
2022/01/14 00:36:41;;;;;;;20.95;15.18;;;;;;;;;;5011869;28;20822;-77
2022/01/14 00:39:09;;;;;;;20.73;14.27;;;;;;;;;;5004122;28;20204;-77
2022/01/14 00:41:36;;;;;;;21.42;13.70;;;;;;;;;;4995788;28;20199;-77
2022/01/14 00:44:05;;;;;;;26.98;15.95;;;;;;;;;;5004111;28;20208;-78
2022/01/14 00:46:32;;;;;;;25.60;15.25;;;;;;;;;;5007717;28;20640;-82
2022/01/14 00:49:01;;;;;;;26.15;13.93;;;;;;;;;;5008551;28;20220;-75
2022/01/14 00:51:28;;;;;;;23.08;12.57;;;;;;;;;;5011584;28;20196;-77
2022/01/14 00:53:55;;;;;;;25.13;14.73;;;;;;;;;;5010326;28;20655;-77
2022/01/14 00:56:30;;;;;;;29.20;14.23;;;;;;;;;;5003518;28;20193;-77
2022/01/14 00:59:16;;;;;;;18.55;13.07;;;;;;;;;;5003072;28;20287;-77
2022/01/14 01:01:43;;;;;;;21.67;13.75;;;;;;;;;;5008444;28;20196;-75
2022/01/14 01:04:12;;;;;;;27.25;14.18;;;;;;;;;;5012744;28;20670;-76
2022/01/14 01:06:39;;;;;;;21.17;13.50;;;;;;;;;;5009145;28;20204;-76
2022/01/14 01:09:10;;;;;;;27.77;14.30;;;;;;;;;;5002060;28;20231;-76
2022/01/14 01:11:40;;;;;;;24.08;14.70;;;;;;;;;;5002529;28;20196;-76
2022/01/14 01:14:12;;;;;;;22.95;14.98;;;;;;;;;;5011829;28;20188;-76
2022/01/14 01:16:39;;;;;;;20.40;12.98;;;;;;;;;;5006676;28;20639;-75
2022/01/14 01:19:06;;;;;;;25.15;13.80;;;;;;;;;;5002773;28;20196;-75
2022/01/14 01:21:35;;;;;;;28.10;15.00;;;;;;;;;;5010911;28;20200;-76
2022/01/14 01:24:02;;;;;;;17.77;11.13;;;;;;;;;;5006252;28;20200;-77
2022/01/14 01:26:32;;;;;;;23.42;13.88;;;;;;;;;;5012736;28;20200;-77
2022/01/14 01:29:06;;;;;;;20.13;14.50;;;;;;;;;;5007871;28;20246;-77
2022/01/14 01:31:38;;;;;;;23.48;13.25;;;;;;;;;;5002128;28;20203;-77
2022/01/14 01:34:05;;;;;;;20.73;14.00;;;;;;;;;;5010384;28;20647;-77
2022/01/14 01:36:32;;;;;;;20.15;13.07;;;;;;;;;;5001369;28;20196;-77
2022/01/14 01:39:00;;;;;;;20.38;14.07;;;;;;;;;;5006039;28;20583;-74
2022/01/14 01:41:31;;;;;;;18.05;12.13;;;;;;;;;;5003101;28;20693;-77
2022/01/14 01:43:59;;;;;;;28.80;13.02;;;;;;;;;;5011130;28;20200;-76
2022/01/14 01:46:27;;;;;;;24.75;13.48;;;;;;;;;;5003566;28;20193;-78
2022/01/14 01:48:54;;;;;;;24.52;13.95;;;;;;;;;;5003865;28;20215;-77
2022/01/14 01:51:22;;;;;;;19.67;13.65;;;;;;;;;;5009491;28;20196;-77
2022/01/14 01:53:49;;;;;;;26.63;13.45;;;;;;;;;;5009470;28;20200;-78
2022/01/14 01:56:18;;;;;;;19.98;13.73;;;;;;;;;;5011407;28;20634;-78
2022/01/14 01:58:46;;;;;;;20.20;12.93;;;;;;;;;;5000158;28;20207;-79
2022/01/14 02:01:13;;;;;;;21.80;13.60;;;;;;;;;;5010324;28;20196;-78
2022/01/14 02:03:40;;;;;;;23.02;12.05;;;;;;;;;;5005576;28;20193;-78
2022/01/14 02:06:07;;;;;;;19.48;12.57;;;;;;;;;;5001456;28;20200;-77
2022/01/14 02:08:34;;;;;;;20.95;13.80;;;;;;;;;;5003928;28;20196;-77
2022/01/14 02:11:01;;;;;;;25.48;14.13;;;;;;;;;;5006900;28;20189;-76
2022/01/14 02:13:31;;;;;;;23.00;14.15;;;;;;;;;;5011239;28;20195;-77
2022/01/14 02:16:18;;;;;;;22.40;15.25;;;;;;;;;;5009906;28;20579;-75
2022/01/14 02:19:10;;;;;;;19.80;12.95;;;;;;;;;;5005131;28;20250;-76
2022/01/14 02:24:35;;;;;;;22.27;14.10;;;;;;;;;;5007048;28;20222;-76
2022/01/14 02:27:02;;;;;;;23.15;13.98;;;;;;;;;;4992121;28;20545;-76
2022/01/14 02:29:29;;;;;;;21.60;13.07;;;;;;;;;;4995601;28;20234;-76
2022/01/14 02:31:56;;;;;;;23.30;14.18;;;;;;;;;;5005009;28;20193;-76
2022/01/14 02:34:23;;;;;;;20.95;14.25;;;;;;;;;;5006902;28;20200;-76
2022/01/14 02:36:52;;;;;;;19.67;14.00;;;;;;;;;;5010481;28;20200;-77
2022/01/14 02:39:20;;;;;;;22.08;12.75;;;;;;;;;;5008490;28;20658;-76
2022/01/14 02:41:48;;;;;;;23.13;13.38;;;;;;;;;;5002393;28;20192;-76
2022/01/14 02:44:18;;;;;;;19.38;12.38;;;;;;;;;;5011531;28;20208;-76
2022/01/14 02:46:52;;;;;;;20.33;12.82;;;;;;;;;;4997828;28;20272;-76
2022/01/14 02:49:20;;;;;;;20.75;12.15;;;;;;;;;;5005803;28;20219;-76
2022/01/14 02:51:47;;;;;;;23.52;14.68;;;;;;;;;;5005504;28;20184;-76
2022/01/14 02:54:22;;;;;;;25.75;13.90;;;;;;;;;;5008469;28;20203;-76
2022/01/14 02:56:50;;;;;;;19.27;11.55;;;;;;;;;;5010383;28;20192;-76
2022/01/14 02:59:18;;;;;;;20.83;13.65;;;;;;;;;;5004533;28;20200;-77
2022/01/14 03:01:46;;;;;;;22.40;12.40;;;;;;;;;;5003205;28;20766;-76
2022/01/14 03:04:15;;;;;;;22.30;14.18;;;;;;;;;;4998761;28;20192;-76
2022/01/14 03:06:42;;;;;;;21.70;14.07;;;;;;;;;;5001996;28;20308;-76
2022/01/14 03:09:09;;;;;;;20.42;12.50;;;;;;;;;;5006315;28;20203;-77
2022/01/14 03:11:41;;;;;;;23.67;12.55;;;;;;;;;;5010239;28;20189;-75
2022/01/14 03:14:10;;;;;;;22.05;13.15;;;;;;;;;;5015197;28;20192;-75
2022/01/14 03:16:40;;;;;;;21.35;13.27;;;;;;;;;;5013009;28;20582;-76
2022/01/14 03:19:12;;;;;;;21.15;12.45;;;;;;;;;;5013612;28;20192;-76
2022/01/14 03:21:41;;;;;;;25.23;14.57;;;;;;;;;;5014287;28;20184;-76
2022/01/14 03:24:18;;;;;;;18.73;12.88;;;;;;;;;;5009616;28;20197;-75
2022/01/14 03:26:47;;;;;;;20.95;13.23;;;;;;;;;;5012985;28;20292;-76
2022/01/14 03:29:15;;;;;;;21.90;12.35;;;;;;;;;;5013710;28;20207;-76
2022/01/14 03:31:42;;;;;;;20.10;12.80;;;;;;;;;;5011904;28;20189;-76
2022/01/14 03:34:09;;;;;;;21.90;12.27;;;;;;;;;;5009278;28;20684;-76
2022/01/14 03:36:36;;;;;;;23.10;12.18;;;;;;;;;;5013597;28;20666;-76
2022/01/14 03:39:04;;;;;;;18.77;11.35;;;;;;;;;;5008991;28;20208;-76
2022/01/14 03:41:31;;;;;;;17.13;11.70;;;;;;;;;;5013009;28;20563;-77
2022/01/14 03:43:59;;;;;;;24.30;12.57;;;;;;;;;;5014209;28;20570;-76
2022/01/14 03:46:26;;;;;;;19.60;13.50;;;;;;;;;;5014155;28;20189;-77
2022/01/14 03:48:53;;;;;;;18.58;12.00;;;;;;;;;;5010194;28;20207;-77
2022/01/14 03:51:21;;;;;;;17.80;11.95;;;;;;;;;;5012025;28;20524;-77
2022/01/14 03:53:48;;;;;;;22.65;12.13;;;;;;;;;;5008718;28;20208;-77
2022/01/14 03:56:15;;;;;;;20.33;12.63;;;;;;;;;;5007748;28;20224;-78
2022/01/14 03:58:43;;;;;;;21.88;12.48;;;;;;;;;;4994738;28;20220;-78
2022/01/14 04:01:11;;;;;;;21.83;11.85;;;;;;;;;;5010945;28;20655;-78
2022/01/14 04:03:39;;;;;;;20.75;11.95;;;;;;;;;;5004845;28;20275;-78
2022/01/14 04:06:06;;;;;;;21.83;13.70;;;;;;;;;;5012933;28;20200;-78
2022/01/14 04:08:33;;;;;;;19.58;11.80;;;;;;;;;;5010479;28;20564;-77
2022/01/14 04:11:02;;;;;;;24.60;12.43;;;;;;;;;;5011148;28;20216;-77
2022/01/14 04:13:39;;;;;;;19.35;11.05;;;;;;;;;;5009885;28;20204;-78
2022/01/14 04:16:06;;;;;;;19.98;11.48;;;;;;;;;;5013978;28;20573;-77
2022/01/14 04:18:34;;;;;;;18.25;10.98;;;;;;;;;;5008844;28;20192;-78
2022/01/14 04:21:02;;;;;;;19.83;11.55;;;;;;;;;;5010629;28;20196;-78
2022/01/14 04:23:29;;;;;;;20.80;11.63;;;;;;;;;;5005848;28;20196;-78
2022/01/14 04:25:56;;;;;;;20.23;12.80;;;;;;;;;;5012937;28;20185;-79
2022/01/14 04:28:25;;;;;;;20.20;12.45;;;;;;;;;;5008407;28;20198;-79
2022/01/14 04:30:54;;;;;;;22.85;11.70;;;;;;;;;;5008371;28;20223;-79
2022/01/14 04:33:21;;;;;;;21.23;13.25;;;;;;;;;;5006613;28;20204;-78
2022/01/14 04:35:50;;;;;;;19.38;11.90;;;;;;;;;;5011515;28;20295;-78
2022/01/14 04:38:17;;;;;;;22.80;12.32;;;;;;;;;;5011835;28;20192;-76
2022/01/14 04:40:44;;;;;;;19.60;11.90;;;;;;;;;;5010258;28;20200;-78
2022/01/14 04:43:13;;;;;;;23.63;12.70;;;;;;;;;;5013104;28;20196;-78
2022/01/14 04:45:55;;;;;;;20.92;12.85;;;;;;;;;;5006887;28;20250;-77
2022/01/14 04:48:23;;;;;;;21.20;11.70;;;;;;;;;;5002600;28;20274;-78
2022/01/14 04:50:53;;;;;;;25.88;12.25;;;;;;;;;;5007454;28;20246;-79
2022/01/14 04:53:21;;;;;;;18.25;10.88;;;;;;;;;;5006359;28;20611;-79
2022/01/14 04:55:48;;;;;;;18.13;11.80;;;;;;;;;;5010009;28;20219;-79
2022/01/14 04:58:15;;;;;;;17.25;12.15;;;;;;;;;;5011929;28;20204;-79
2022/01/14 05:00:42;;;;;;;22.10;12.35;;;;;;;;;;5007031;28;20188;-79
2022/01/14 05:03:09;;;;;;;20.80;11.80;;;;;;;;;;5007976;28;20197;-78
2022/01/14 05:05:40;;;;;;;16.58;11.45;;;;;;;;;;5011722;28;20200;-79
2022/01/14 05:08:11;;;;;;;20.90;11.30;;;;;;;;;;5011740;28;20196;-79
2022/01/14 05:11:00;;;;;;;22.50;11.93;;;;;;;;;;5009373;28;20598;-78
2022/01/14 05:13:27;;;;;;;24.50;13.48;;;;;;;;;;5012673;28;20651;-78
2022/01/14 05:15:55;;;;;;;19.40;11.30;;;;;;;;;;5006257;28;20236;-78
2022/01/14 05:18:23;;;;;;;22.80;12.45;;;;;;;;;;5008033;28;20193;-78
2022/01/14 05:20:50;;;;;;;21.67;12.10;;;;;;;;;;5008297;28;20230;-78
2022/01/14 05:23:19;;;;;;;21.35;12.05;;;;;;;;;;5011083;28;20559;-79
2022/01/14 05:25:46;;;;;;;24.33;12.95;;;;;;;;;;5005394;28;20822;-78
2022/01/14 05:28:13;;;;;;;18.38;11.23;;;;;;;;;;5012419;28;20196;-79
2022/01/14 05:30:40;;;;;;;18.30;11.52;;;;;;;;;;5009897;28;20836;-78
2022/01/14 05:33:07;;;;;;;20.52;12.65;;;;;;;;;;5009366;28;20193;-78
2022/01/14 05:35:34;;;;;;;18.85;11.57;;;;;;;;;;5010653;28;20204;-78
2022/01/14 05:38:01;;;;;;;22.30;11.93;;;;;;;;;;4996917;28;20195;-79
2022/01/14 05:40:30;;;;;;;19.30;11.60;;;;;;;;;;5006172;28;20706;-79
2022/01/14 05:42:59;;;;;;;22.10;11.93;;;;;;;;;;4997431;28;20695;-78
2022/01/14 05:45:26;;;;;;;24.35;12.25;;;;;;;;;;5003054;28;20296;-79
2022/01/14 05:47:53;;;;;;;27.23;12.57;;;;;;;;;;5011505;28;20279;-77
2022/01/14 05:50:21;;;;;;;20.05;11.63;;;;;;;;;;4997496;28;20216;-78
2022/01/14 05:52:48;;;;;;;18.73;12.55;;;;;;;;;;4998911;28;20193;-78
2022/01/14 05:55:17;;;;;;;17.90;11.43;;;;;;;;;;5007387;28;20203;-78
2022/01/14 05:57:45;;;;;;;17.77;11.10;;;;;;;;;;5012142;28;20200;-77
2022/01/14 06:00:13;;;;;;;18.30;12.48;;;;;;;;;;5009013;28;20203;-78
2022/01/14 06:02:40;;;;;;;21.67;12.82;;;;;;;;;;5007708;28;20192;-78
2022/01/14 06:05:08;;;;;;;22.83;11.82;;;;;;;;;;5011397;28;20188;-78
2022/01/14 06:07:35;;;;;;;17.25;12.65;;;;;;;;;;5011852;28;20200;-79
2022/01/14 06:10:02;;;;;;;16.17;10.55;;;;;;;;;;5008512;28;20646;-79
2022/01/14 06:12:29;;;;;;;24.08;13.77;;;;;;;;;;5011232;28;20200;-79
2022/01/14 06:14:58;;;;;;;14.80;10.15;;;;;;;;;;5011505;28;20196;-78
2022/01/14 06:17:25;;;;;;;25.58;11.45;;;;;;;;;;5010602;28;20216;-78
2022/01/14 06:19:52;;;;;;;19.58;11.93;;;;;;;;;;5009628;28;20215;-78
2022/01/14 06:22:19;;;;;;;18.75;10.82;;;;;;;;;;5002808;28;20224;-77
2022/01/14 06:24:46;;;;;;;23.35;12.98;;;;;;;;;;5001355;28;20192;-80
2022/01/14 06:27:13;;;;;;;16.65;11.02;;;;;;;;;;5010865;28;20196;-77
2022/01/14 06:29:40;;;;;;;21.55;13.82;;;;;;;;;;5010212;28;20192;-79
2022/01/14 06:32:09;;;;;;;19.73;11.20;;;;;;;;;;5003062;28;20713;-78
2022/01/14 06:34:36;;;;;;;20.60;12.93;;;;;;;;;;5004304;28;20196;-78
2022/01/14 06:37:03;;;;;;;24.48;12.55;;;;;;;;;;5006188;28;20552;-79
2022/01/14 06:39:30;;;;;;;27.65;13.93;;;;;;;;;;4996712;28;20193;-78
2022/01/14 06:41:58;;;;;;;27.63;13.85;;;;;;;;;;5009164;28;20196;-79
2022/01/14 06:44:25;;;;;;;26.20;14.68;;;;;;;;;;5009444;28;20659;-78
2022/01/14 06:46:52;;;;;;;24.38;13.38;;;;;;;;;;5000894;28;20674;-77
2022/01/14 06:49:20;;;;;;;27.23;12.68;;;;;;;;;;5005856;28;20192;-78
2022/01/14 06:51:48;;;;;;;26.55;12.98;;;;;;;;;;5009796;28;20227;-78
2022/01/14 06:54:15;;;;;;;26.17;13.15;;;;;;;;;;5008442;28;20200;-77
2022/01/14 06:56:42;;;;;;;26.83;16.08;;;;;;;;;;5009895;28;20196;-77
2022/01/14 06:59:10;;;;;;;26.50;14.20;;;;;;;;;;5009847;28;20685;-77
2022/01/14 07:01:37;;;;;;;28.05;14.10;;;;;;;;;;5007033;28;20193;-77
2022/01/14 07:04:04;;;;;;;23.48;13.80;;;;;;;;;;5001619;28;20197;-79
2022/01/14 07:06:32;;;;;;;29.52;15.65;;;;;;;;;;5010091;28;20668;-79
2022/01/14 07:09:00;;;;;;;29.45;13.90;;;;;;;;;;5008047;28;20275;-79
2022/01/14 07:11:34;;;;;;;29.08;13.90;;;;;;;;;;4993840;28;20238;-79
2022/01/14 07:14:01;;;;;;;25.63;12.82;;;;;;;;;;5003922;28;20190;-79
2022/01/14 07:16:28;;;;;;;27.83;14.82;;;;;;;;;;5010932;28;20215;-79
2022/01/14 07:18:55;;;;;;;28.83;14.63;;;;;;;;;;5003954;28;20193;-79
2022/01/14 07:21:22;;;;;;;26.20;14.15;;;;;;;;;;5008074;28;20204;-79
2022/01/14 07:23:51;;;;;;;33.22;15.15;;;;;;;;;;5005391;28;20204;-79
2022/01/14 07:26:19;;;;;;;28.40;16.25;;;;;;;;;;5002215;28;20255;-78
2022/01/14 07:28:46;;;;;;;29.23;15.27;;;;;;;;;;5010574;28;20238;-79
2022/01/14 07:31:13;;;;;;;26.10;14.90;;;;;;;;;;5001600;28;20219;-79
2022/01/14 07:33:40;;;;;;;30.33;15.70;;;;;;;;;;4997932;28;20199;-79
2022/01/14 07:36:07;;;;;;;27.30;14.00;;;;;;;;;;5006515;28;20196;-79
2022/01/14 07:38:34;;;;;;;30.33;15.95;;;;;;;;;;5007402;28;20200;-78
2022/01/14 07:41:03;;;;;;;37.35;16.88;;;;;;;;;;5005186;28;20204;-79
2022/01/14 07:43:30;;;;;;;33.85;16.40;;;;;;;;;;5003267;28;20192;-76
2022/01/14 07:45:57;;;;;;;33.40;16.13;;;;;;;;;;5009793;28;20196;-75
2022/01/14 07:48:24;;;;;;;30.50;17.17;;;;;;;;;;5006516;28;20201;-76
2022/01/14 07:50:51;;;;;;;37.72;16.40;;;;;;;;;;5005781;28;20220;-75
2022/01/14 07:53:18;;;;;;;35.08;17.35;;;;;;;;;;5007813;28;20192;-76
2022/01/14 07:55:46;;;;;;;36.67;16.08;;;;;;;;;;4996595;28;20211;-77
2022/01/14 07:58:15;;;;;;;32.85;16.73;;;;;;;;;;5013893;28;20200;-77
2022/01/14 08:00:42;;;;;;;28.08;14.20;;;;;;;;;;5011492;28;20203;-76
2022/01/14 08:03:12;;;;;;;35.15;15.43;;;;;;;;;;5005591;28;20197;-76
2022/01/14 08:05:39;;;;;;;27.45;15.20;;;;;;;;;;5011118;28;20207;-77
2022/01/14 08:08:07;;;;;;;32.83;14.35;;;;;;;;;;5013756;28;20211;-78
2022/01/14 08:10:35;;;;;;;27.83;15.15;;;;;;;;;;5005664;28;20196;-78
2022/01/14 08:13:02;;;;;;;26.45;14.85;;;;;;;;;;5013509;28;20215;-78
2022/01/14 08:15:30;;;;;;;32.85;15.90;;;;;;;;;;5012181;28;20196;-76
2022/01/14 08:17:59;;;;;;;26.15;14.52;;;;;;;;;;5010768;28;20216;-79
2022/01/14 08:20:26;;;;;;;22.85;13.80;;;;;;;;;;5002230;28;20219;-79
2022/01/14 08:22:53;;;;;;;30.10;14.35;;;;;;;;;;5005036;28;20192;-77
2022/01/14 08:25:20;;;;;;;36.45;16.02;;;;;;;;;;5008803;28;20196;-78
2022/01/14 08:27:48;;;;;;;31.80;13.68;;;;;;;;;;5010546;28;20204;-77
2022/01/14 08:30:15;;;;;;;26.90;14.23;;;;;;;;;;5010667;28;20197;-77
2022/01/14 08:32:43;;;;;;;28.83;14.45;;;;;;;;;;4995505;28;20225;-77
2022/01/14 08:35:10;;;;;;;29.95;15.05;;;;;;;;;;5010765;28;20192;-79
2022/01/14 08:37:38;;;;;;;32.67;16.27;;;;;;;;;;5004651;28;20207;-78
2022/01/14 08:40:06;;;;;;;29.38;15.68;;;;;;;;;;5006584;28;20728;-78
2022/01/14 08:42:34;;;;;;;29.48;14.98;;;;;;;;;;5007558;28;20223;-83
2022/01/14 08:45:01;;;;;;;26.35;13.40;;;;;;;;;;5010929;28;20236;-76
2022/01/14 08:47:29;;;;;;;22.67;14.55;;;;;;;;;;5005672;28;20680;-75
2022/01/14 08:49:57;;;;;;;23.50;13.63;;;;;;;;;;5009930;28;20219;-76
2022/01/14 08:52:25;;;;;;;27.80;15.93;;;;;;;;;;5009906;28;20213;-76
2022/01/14 08:54:52;;;;;;;27.92;14.73;;;;;;;;;;5009772;28;20193;-77
2022/01/14 08:57:19;;;;;;;27.50;14.55;;;;;;;;;;5004298;28;20200;-76
2022/01/14 08:59:46;;;;;;;25.98;14.25;;;;;;;;;;5007836;28;20196;-76
2022/01/14 09:02:13;;;;;;;26.20;13.65;;;;;;;;;;5010108;28;20218;-76
2022/01/14 09:04:40;;;;;;;29.98;15.52;;;;;;;;;;5009611;28;20203;-74
2022/01/14 09:07:09;;;;;;;29.50;12.85;;;;;;;;;;5014293;28;20191;-76
2022/01/14 09:09:36;;;;;;;25.30;12.73;;;;;;;;;;5009690;28;20212;-76
2022/01/14 09:12:03;;;;;;;29.48;16.15;;;;;;;;;;5013844;28;20208;-76
2022/01/14 09:14:30;;;;;;;25.35;14.43;;;;;;;;;;5014942;28;20200;-76
2022/01/14 09:16:59;;;;;;;26.52;14.05;;;;;;;;;;5003296;28;20225;-76
2022/01/14 09:19:26;;;;;;;23.45;14.32;;;;;;;;;;5010258;28;20335;-76
2022/01/14 09:21:53;;;;;;;29.60;14.60;;;;;;;;;;5013276;28;20210;-76
2022/01/14 09:24:21;;;;;;;25.02;15.20;;;;;;;;;;5003078;28;20581;-76
2022/01/14 09:26:48;;;;;;;28.17;15.48;;;;;;;;;;4992897;28;20204;-76
2022/01/14 09:29:15;;;;;;;26.30;14.95;;;;;;;;;;5005633;28;20207;-76
2022/01/14 09:31:43;;;;;;;24.83;14.00;;;;;;;;;;5012336;28;20568;-76
2022/01/14 09:34:10;;;;;;;23.00;13.32;;;;;;;;;;5005182;28;20197;-76
2022/01/14 09:36:37;;;;;;;20.90;12.30;;;;;;;;;;5007784;28;20526;-75
2022/01/14 09:39:04;;;;;;;30.92;13.65;;;;;;;;;;4999610;28;20209;-76
2022/01/14 09:41:33;;;;;;;23.00;14.93;;;;;;;;;;4993381;28;20264;-76
2022/01/14 09:44:00;;;;;;;25.10;13.60;;;;;;;;;;5002849;28;20204;-76
2022/01/14 09:46:27;;;;;;;23.75;13.80;;;;;;;;;;5012016;28;20208;-76
2022/01/14 09:48:55;;;;;;;31.35;14.48;;;;;;;;;;5008014;28;20231;-77
2022/01/14 09:51:22;;;;;;;29.13;14.77;;;;;;;;;;5007030;28;20316;-77
2022/01/14 09:53:49;;;;;;;29.17;13.95;;;;;;;;;;5010633;28;20229;-76
2022/01/14 09:56:17;;;;;;;31.90;15.57;;;;;;;;;;5001395;28;20207;-76
2022/01/14 09:58:48;;;;;;;31.48;16.30;;;;;;;;;;5011740;28;20188;-78
2022/01/14 10:01:15;;;;;;;22.20;13.07;;;;;;;;;;5011870;28;20295;-77
2022/01/14 10:03:54;;;;;;;25.70;13.88;;;;;;;;;;5004947;28;20223;-75
2022/01/14 10:06:40;;;;;;;27.83;14.15;;;;;;;;;;5011855;28;20199;-77
2022/01/14 10:09:09;;;;;;;27.08;14.93;;;;;;;;;;4997175;28;20204;-76
2022/01/14 10:11:37;;;;;;;36.25;17.45;;;;;;;;;;5000638;28;20290;-76
2022/01/14 10:14:15;;;;;;;30.98;16.98;;;;;;;;;;5007030;28;20211;-76
2022/01/14 10:16:43;;;;;;;27.05;15.75;;;;;;;;;;5003337;28;20216;-76
2022/01/14 10:19:21;;;;;;;32.08;14.70;;;;;;;;;;5003174;28;20204;-76
2022/01/14 10:21:48;;;;;;;29.75;15.45;;;;;;;;;;5006709;28;20567;-76
2022/01/14 10:24:16;;;;;;;28.17;16.27;;;;;;;;;;5002816;28;20616;-76
2022/01/14 10:26:50;;;;;;;28.88;14.45;;;;;;;;;;5008728;28;20200;-77
2022/01/14 10:29:26;;;;;;;30.65;14.93;;;;;;;;;;5006885;28;20202;-75
2022/01/14 10:31:54;;;;;;;34.25;17.15;;;;;;;;;;5002950;28;20216;-77
2022/01/14 10:34:21;;;;;;;27.88;15.70;;;;;;;;;;5003771;28;20599;-77
2022/01/14 10:36:50;;;;;;;28.95;14.77;;;;;;;;;;5003171;28;20667;-78
2022/01/14 10:39:21;;;;;;;28.95;17.60;;;;;;;;;;4998505;28;20234;-77
2022/01/14 10:41:48;;;;;;;27.92;16.42;;;;;;;;;;5004922;28;20212;-77
2022/01/14 10:44:30;;;;;;;30.35;14.52;;;;;;;;;;5004232;28;20204;-77
2022/01/14 10:47:13;;;;;;;28.95;16.63;;;;;;;;;;5007606;28;20654;-78
2022/01/14 10:49:42;;;;;;;25.83;12.70;;;;;;;;;;4999575;28;20207;-76
2022/01/14 10:52:13;;;;;;;29.00;16.05;;;;;;;;;;5004366;28;20704;-78
2022/01/14 10:54:41;;;;;;;35.78;17.80;;;;;;;;;;5007272;28;20211;-77
2022/01/14 10:57:16;;;;;;;37.30;16.50;;;;;;;;;;5004703;28;20559;-77
2022/01/14 10:59:44;;;;;;;25.88;14.35;;;;;;;;;;5004442;28;20196;-78
2022/01/14 11:02:30;;;;;;;30.55;15.55;;;;;;;;;;5007165;28;20207;-77
2022/01/14 11:05:08;;;;;;;33.28;15.52;;;;;;;;;;5005931;28;20200;-77
2022/01/14 11:07:35;;;;;;;27.48;15.52;;;;;;;;;;5006619;28;20564;-76
2022/01/14 11:10:02;;;;;;;29.45;15.88;;;;;;;;;;5005430;28;20420;-74
2022/01/14 11:12:30;;;;;;;32.28;16.90;;;;;;;;;;5005506;28;20239;-76
2022/01/14 11:14:58;;;;;;;32.40;15.88;;;;;;;;;;5005958;28;20203;-76
2022/01/14 11:17:25;;;;;;;27.33;14.43;;;;;;;;;;5002581;28;20231;-75
2022/01/14 11:19:53;;;;;;;26.30;16.00;;;;;;;;;;5005486;28;20200;-75
2022/01/14 11:25:05;;;;;;;25.65;15.35;;;;;;;;;;5000158;28;20215;-77
2022/01/14 11:27:33;;;;;;;23.38;14.23;;;;;;;;;;5003064;28;20196;-75
2022/01/14 11:30:01;;;;;;;35.13;18.13;;;;;;;;;;5013464;28;20315;-74
2022/01/14 11:32:29;;;;;;;30.42;15.48;;;;;;;;;;5002298;28;20220;-76
2022/01/14 11:34:56;;;;;;;27.30;15.82;;;;;;;;;;4992281;28;20204;-76
2022/01/14 11:37:33;;;;;;;31.67;17.67;;;;;;;;;;5009849;28;20212;-76
2022/01/14 11:40:02;;;;;;;41.63;18.35;;;;;;;;;;5003013;28;20199;-75
2022/01/14 11:42:43;;;;;;;41.88;17.67;;;;;;;;;;5009103;28;20212;-74
2022/01/14 11:45:12;;;;;;;27.13;17.75;;;;;;;;;;5006995;28;20212;-76
2022/01/14 11:47:58;;;;;;;30.27;16.45;;;;;;;;;;5011105;28;20211;-76
2022/01/14 11:50:46;;;;;;;31.50;18.38;;;;;;;;;;5004511;28;20306;-75
2022/01/14 11:53:32;;;;;;;30.73;15.88;;;;;;;;;;5006274;28;20326;-75
2022/01/14 11:55:59;;;;;;;29.73;16.35;;;;;;;;;;4997822;28;20711;-75
2022/01/14 11:58:26;;;;;;;40.25;19.83;;;;;;;;;;5008066;28;20196;-76
2022/01/14 12:00:55;;;;;;;32.55;18.02;;;;;;;;;;5006712;28;20200;-77
2022/01/14 12:03:32;;;;;;;28.75;16.38;;;;;;;;;;5007997;28;20204;-77
2022/01/14 12:06:00;;;;;;;34.75;16.80;;;;;;;;;;5004131;28;20218;-78
2022/01/14 12:08:28;;;;;;;37.78;18.67;;;;;;;;;;5007858;28;20622;-77
2022/01/14 12:10:56;;;;;;;31.30;16.08;;;;;;;;;;5003824;28;20567;-79
2022/01/14 12:13:30;;;;;;;31.10;17.70;;;;;;;;;;5010345;28;20220;-77
2022/01/14 12:16:01;;;;;;;32.15;17.30;;;;;;;;;;5006673;28;20224;-77
2022/01/14 12:18:47;;;;;;;35.58;17.48;;;;;;;;;;5005659;28;20706;-77
2022/01/14 12:21:14;;;;;;;34.83;19.15;;;;;;;;;;5009441;28;20192;-77
2022/01/14 12:23:41;;;;;;;36.22;19.58;;;;;;;;;;5006277;28;20663;-76
2022/01/14 12:26:14;;;;;;;31.27;18.05;;;;;;;;;;5006931;28;20200;-77
2022/01/14 12:28:41;;;;;;;35.70;16.88;;;;;;;;;;5010156;28;20196;-76
2022/01/14 12:31:10;;;;;;;34.08;17.65;;;;;;;;;;5009781;28;20198;-77
2022/01/14 12:33:41;;;;;;;27.75;16.13;;;;;;;;;;4997316;28;20224;-77
2022/01/14 12:36:12;;;;;;;30.38;17.40;;;;;;;;;;5003023;28;20200;-76
2022/01/14 12:38:40;;;;;;;34.42;18.20;;;;;;;;;;5009363;28;20196;-76
2022/01/14 12:41:14;;;;;;;32.40;18.75;;;;;;;;;;5006608;28;20197;-77
2022/01/14 12:43:48;;;;;;;32.60;17.85;;;;;;;;;;5008403;28;20212;-77
2022/01/14 12:46:35;;;;;;;31.70;17.38;;;;;;;;;;5008708;28;20635;-76
2022/01/14 12:49:05;;;;;;;35.90;18.45;;;;;;;;;;5001821;28;20196;-77
2022/01/14 12:51:33;;;;;;;31.83;16.70;;;;;;;;;;5005422;28;20201;-77
2022/01/14 12:54:02;;;;;;;32.83;16.42;;;;;;;;;;5000880;28;20221;-77
2022/01/14 12:56:30;;;;;;;37.80;18.40;;;;;;;;;;4999496;28;20247;-78
2022/01/14 12:59:02;;;;;;;35.83;16.83;;;;;;;;;;5004167;28;20201;-76
2022/01/14 13:01:31;;;;;;;36.97;19.70;;;;;;;;;;5003895;28;20541;-77
2022/01/14 13:04:00;;;;;;;29.70;18.13;;;;;;;;;;5001443;28;20200;-75
2022/01/14 13:06:28;;;;;;;28.70;16.25;;;;;;;;;;5007793;28;20207;-75
2022/01/14 13:08:56;;;;;;;28.00;16.00;;;;;;;;;;4997773;28;20200;-77
2022/01/14 13:11:23;;;;;;;29.08;16.67;;;;;;;;;;5004511;28;20250;-78
2022/01/14 13:14:00;;;;;;;30.85;17.90;;;;;;;;;;5007840;28;20212;-78
2022/01/14 13:16:27;;;;;;;31.73;17.77;;;;;;;;;;5005075;28;20269;-76
2022/01/14 13:18:57;;;;;;;32.38;16.88;;;;;;;;;;5002226;28;20200;-78
2022/01/14 13:21:24;;;;;;;34.25;16.58;;;;;;;;;;5005075;28;20196;-77
2022/01/14 13:23:51;;;;;;;26.40;14.68;;;;;;;;;;5006088;28;20211;-75
2022/01/14 13:26:18;;;;;;;24.80;16.00;;;;;;;;;;5005264;28;20215;-76
2022/01/14 13:28:48;;;;;;;34.65;17.50;;;;;;;;;;5007456;28;20207;-76
2022/01/14 13:31:16;;;;;;;31.38;17.67;;;;;;;;;;5006914;28;20290;-76
2022/01/14 13:33:43;;;;;;;32.00;16.95;;;;;;;;;;4998788;28;20233;-76
2022/01/14 13:36:12;;;;;;;33.75;18.42;;;;;;;;;;5007617;28;20556;-76
2022/01/14 13:38:39;;;;;;;30.92;17.98;;;;;;;;;;5005737;28;20571;-76
2022/01/14 13:41:08;;;;;;;30.55;17.25;;;;;;;;;;5006586;28;20554;-75
2022/01/14 13:43:37;;;;;;;34.08;18.10;;;;;;;;;;4997138;28;20674;-75
2022/01/14 13:46:07;;;;;;;28.80;16.20;;;;;;;;;;5004999;28;20618;-78
2022/01/14 13:48:41;;;;;;;34.22;17.42;;;;;;;;;;5000405;28;20219;-76
2022/01/14 13:51:11;;;;;;;32.00;18.38;;;;;;;;;;5002883;28;20208;-75
2022/01/14 13:53:41;;;;;;;40.38;17.85;;;;;;;;;;5002095;28;20228;-76
2022/01/14 13:56:10;;;;;;;32.45;16.30;;;;;;;;;;5006717;28;20211;-76
2022/01/14 13:58:38;;;;;;;29.38;17.48;;;;;;;;;;5004071;28;20321;-76
2022/01/14 14:01:06;;;;;;;26.85;15.57;;;;;;;;;;5008193;28;20313;-76
2022/01/14 14:03:38;;;;;;;29.27;17.23;;;;;;;;;;5012945;28;20207;-76
2022/01/14 14:06:09;;;;;;;33.85;16.60;;;;;;;;;;5007484;28;20533;-76
2022/01/14 14:08:50;;;;;;;32.78;18.65;;;;;;;;;;5006065;28;20251;-76
2022/01/14 14:16:55;;;;;;;28.30;15.93;;;;;;;;;;5006284;28;20227;-76
2022/01/14 14:19:23;;;;;;;31.33;17.65;;;;;;;;;;4998661;28;20205;-76
2022/01/14 14:22:24;;;;;;;29.33;17.42;;;;;;;;;;5008535;28;20204;-76
2022/01/14 14:24:55;;;;;;;28.63;17.48;;;;;;;;;;4928311;29;20203;-75
2022/01/14 14:27:24;;;;;;;29.83;15.60;;;;;;;;;;4928220;29;20302;-78
2022/01/14 14:29:53;;;;;;;29.40;19.92;;;;;;;;;;4971636;28;20227;-79
2022/01/14 14:32:25;;;;;;;25.38;16.48;;;;;;;;;;5006240;28;20358;-76
2022/01/14 14:34:52;;;;;;;29.88;15.93;;;;;;;;;;5004426;28;20251;-75
2022/01/14 14:37:19;;;;;;;27.85;16.95;;;;;;;;;;5002029;28;20494;-76
2022/01/14 14:39:46;;;;;;;28.23;15.93;;;;;;;;;;5000703;28;20203;-76
2022/01/14 14:42:13;;;;;;;25.63;14.55;;;;;;;;;;5005920;28;20583;-75
2022/01/14 14:44:42;;;;;;;27.63;15.32;;;;;;;;;;5006832;28;20211;-77